sensor_id;sensor_type;location;lat;lon;timestamp;pressure;altitude;pressure_sealevel;temperature;humidity
43281;BME280;62175;49.416;8.690;2023-04-29T00:01:08;100156.97;;;16.18;66.71
43281;BME280;62175;49.416;8.690;2023-04-29T00:03:35;100156.59;;;16.42;66.42
43281;BME280;62175;49.416;8.690;2023-04-29T00:06:02;100151.24;;;16.52;66.30
43281;BME280;62175;49.416;8.690;2023-04-29T00:08:30;100153.24;;;16.57;66.53
43281;BME280;62175;49.416;8.690;2023-04-29T00:10:57;100155.19;;;16.35;66.80
43281;BME280;62175;49.416;8.690;2023-04-29T00:13:24;100158.17;;;16.26;68.00
43281;BME280;62175;49.416;8.690;2023-04-29T00:15:51;100160.32;;;16.44;65.16
43281;BME280;62175;49.416;8.690;2023-04-29T00:18:19;100160.80;;;16.47;66.37
43281;BME280;62175;49.416;8.690;2023-04-29T00:20:46;100162.54;;;16.32;65.56
43281;BME280;62175;49.416;8.690;2023-04-29T00:23:13;100158.72;;;16.59;65.57
43281;BME280;62175;49.416;8.690;2023-04-29T00:25:40;100158.46;;;16.54;65.73
43281;BME280;62175;49.416;8.690;2023-04-29T00:28:07;100160.15;;;16.28;68.25
43281;BME280;62175;49.416;8.690;2023-04-29T00:30:34;100161.52;;;16.58;67.31
43281;BME280;62175;49.416;8.690;2023-04-29T00:33:01;100158.02;;;16.40;67.67
43281;BME280;62175;49.416;8.690;2023-04-29T00:35:29;100162.10;;;16.46;65.80
43281;BME280;62175;49.416;8.690;2023-04-29T00:37:56;100161.40;;;16.57;66.53
43281;BME280;62175;49.416;8.690;2023-04-29T00:40:23;100164.06;;;16.64;65.65
43281;BME280;62175;49.416;8.690;2023-04-29T00:42:50;100165.71;;;16.76;66.16
43281;BME280;62175;49.416;8.690;2023-04-29T00:45:17;100167.41;;;16.49;66.33
43281;BME280;62175;49.416;8.690;2023-04-29T00:47:44;100161.44;;;16.62;67.05
43281;BME280;62175;49.416;8.690;2023-04-29T00:50:11;100162.13;;;16.59;66.98
43281;BME280;62175;49.416;8.690;2023-04-29T00:52:38;100167.21;;;16.62;67.80
43281;BME280;62175;49.416;8.690;2023-04-29T00:55:06;100168.02;;;16.49;68.00
43281;BME280;62175;49.416;8.690;2023-04-29T00:57:34;100168.55;;;16.81;67.73
43281;BME280;62175;49.416;8.690;2023-04-29T01:00:01;100172.30;;;16.69;65.85
43281;BME280;62175;49.416;8.690;2023-04-29T01:02:28;100170.52;;;16.50;68.46
43281;BME280;62175;49.416;8.690;2023-04-29T01:04:56;100168.50;;;16.47;68.70
43281;BME280;62175;49.416;8.690;2023-04-29T01:07:30;100169.45;;;16.32;68.48
43281;BME280;62175;49.416;8.690;2023-04-29T01:10:25;100168.85;;;16.59;66.78
43281;BME280;62175;49.416;8.690;2023-04-29T01:13:04;100175.05;;;16.78;65.61
43281;BME280;62175;49.416;8.690;2023-04-29T01:15:40;100173.00;;;16.62;68.21
43281;BME280;62175;49.416;8.690;2023-04-29T22:03:02;100843.17;;;15.94;52.42
43281;BME280;62175;49.416;8.690;2023-04-29T22:05:30;100843.73;;;16.21;51.80
43281;BME280;62175;49.416;8.690;2023-04-29T22:07:59;100846.63;;;16.14;51.45
43281;BME280;62175;49.416;8.690;2023-04-29T22:10:26;100854.43;;;16.29;51.37
43281;BME280;62175;49.416;8.690;2023-04-29T22:12:53;100849.23;;;16.33;50.99
43281;BME280;62175;49.416;8.690;2023-04-29T22:15:21;100851.27;;;16.40;50.91
43281;BME280;62175;49.416;8.690;2023-04-29T22:17:49;100854.99;;;16.29;52.80
43281;BME280;62175;49.416;8.690;2023-04-29T22:20:16;100858.36;;;16.26;50.97
43281;BME280;62175;49.416;8.690;2023-04-29T22:22:43;100861.69;;;16.55;51.05
43281;BME280;62175;49.416;8.690;2023-04-29T22:25:11;100862.74;;;16.29;51.41
43281;BME280;62175;49.416;8.690;2023-04-29T22:27:37;100863.55;;;16.01;52.34
43281;BME280;62175;49.416;8.690;2023-04-29T22:30:12;100864.06;;;16.23;50.35
43281;BME280;62175;49.416;8.690;2023-04-29T22:32:39;100865.54;;;16.46;51.78
43281;BME280;62175;49.416;8.690;2023-04-29T22:35:06;100863.35;;;16.34;52.91
43281;BME280;62175;49.416;8.690;2023-04-29T22:37:34;100865.11;;;16.06;51.01
43281;BME280;62175;49.416;8.690;2023-04-29T22:40:01;100863.59;;;16.19;52.13
43281;BME280;62175;49.416;8.690;2023-04-29T22:42:28;100863.65;;;16.24;52.73
43281;BME280;62175;49.416;8.690;2023-04-29T22:44:55;100863.13;;;15.92;50.79
43281;BME280;62175;49.416;8.690;2023-04-29T22:47:22;100861.83;;;16.29;52.66
43281;BME280;62175;49.416;8.690;2023-04-29T22:49:49;100862.67;;;16.16;51.87
43281;BME280;62175;49.416;8.690;2023-04-29T22:52:16;100864.78;;;16.24;51.77
43281;BME280;62175;49.416;8.690;2023-04-29T22:54:43;100865.98;;;16.30;52.03
43281;BME280;62175;49.416;8.690;2023-04-29T22:57:10;100864.74;;;16.31;51.92
43281;BME280;62175;49.416;8.690;2023-04-29T22:59:38;100866.02;;;16.30;52.20
43281;BME280;62175;49.416;8.690;2023-04-29T23:02:06;100865.10;;;16.10;50.85
43281;BME280;62175;49.416;8.690;2023-04-29T23:04:33;100864.64;;;16.21;50.97
43281;BME280;62175;49.416;8.690;2023-04-29T23:07:00;100864.35;;;16.15;51.90
43281;BME280;62175;49.416;8.690;2023-04-29T23:09:27;100866.00;;;16.00;51.84
43281;BME280;62175;49.416;8.690;2023-04-29T23:11:54;100865.33;;;15.96;50.52
43281;BME280;62175;49.416;8.690;2023-04-29T23:14:21;100865.15;;;16.05;52.42
43281;BME280;62175;49.416;8.690;2023-04-29T23:16:48;100862.73;;;16.10;51.36
43281;BME280;62175;49.416;8.690;2023-04-29T23:19:16;100864.52;;;15.97;50.99
43281;BME280;62175;49.416;8.690;2023-04-29T23:21:43;100869.81;;;16.38;51.87
43281;BME280;62175;49.416;8.690;2023-04-29T23:24:10;100872.94;;;15.91;50.47
43281;BME280;62175;49.416;8.690;2023-04-29T23:26:37;100875.35;;;16.06;51.90
43281;BME280;62175;49.416;8.690;2023-04-29T23:29:04;100877.65;;;16.26;49.67
43281;BME280;62175;49.416;8.690;2023-04-29T23:31:31;100878.65;;;16.08;51.49
43281;BME280;62175;49.416;8.690;2023-04-29T23:33:58;100878.76;;;16.18;50.92
43281;BME280;62175;49.416;8.690;2023-04-29T23:36:25;100876.88;;;15.84;50.16
43281;BME280;62175;49.416;8.690;2023-04-29T23:38:53;100876.10;;;16.14;51.00
43281;BME280;62175;49.416;8.690;2023-04-29T23:41:20;100874.90;;;15.89;51.16
43281;BME280;62175;49.416;8.690;2023-04-29T23:43:46;100872.74;;;16.02;52.06
43281;BME280;62175;49.416;8.690;2023-04-29T23:46:14;100873.63;;;15.79;50.67
43281;BME280;62175;49.416;8.690;2023-04-29T23:48:40;100873.23;;;16.21;50.88
43281;BME280;62175;49.416;8.690;2023-04-29T23:51:07;100874.47;;;15.84;51.11
43281;BME280;62175;49.416;8.690;2023-04-29T23:53:35;100872.62;;;16.30;51.92
43281;BME280;62175;49.416;8.690;2023-04-29T23:56:02;100872.58;;;16.30;52.30
43281;BME280;62175;49.416;8.690;2023-04-29T23:58:29;100873.03;;;16.10;51.41
